Kendall, MI

9:54 PM EST on February 01, 2015 (GMT -0500)
Three Rivers Municipal-Haines | Change Station
CLOSE
Current Station
Airport
Location: Three Rivers,
Elevation: 823 ft
Nearby Weather Stations
Active Advisory: Winter Storm Warning

Elev 823 ft 41.96 °N, 85.59 °W | Updated 20 minutes ago

Snow
Snow
16 °F
Feels Like 4 °F
N
12
Wind Variable Wind from NNE
Gusts 18 mph

Today
High -- | Low -- °F
--% Chance of Precip.
Yesterday
High -- | Low -- °F
Precip. -- in
7:57 AM 5:57 PM
Waxing Gibbous, 97% visible
Pressure 29.71 in
Visibility 2.5 miles
Clouds Overcast 3300 ft
Windchill 4 °F
Dew Point 12 °F
Humidity 83%
Rainfall 0.00 in
Snow Depth Not available.
UV 0 out of 12
Pollen .10 out of 12
Air Quality Not available.
Flu Activity Not available.
METAR KHAI 020234Z AUTO 03010G16KT 2 1/2SM -SN OVC033 M09/M11 A2971 RMK AO2 T10861110

More Conditions Fewer Conditions

Pressure 29.71 in
Visibility 2.5 miles
Clouds Overcast 3300 ft
Windchill 4 °F
Dew Point 12 °F
Humidity 83%
Rainfall 0.00 in
Snow Depth Not available.
UV 0 out of 12
Pollen .10 out of 12
Air Quality Not available.
Flu Activity Not available.
METAR KHAI 020234Z AUTO 03010G16KT 2 1/2SM -SN OVC033 M09/M11 A2971 RMK AO2 T10861110

More Conditions Fewer Conditions

10-Day Weather Forecast

Almanac

Astronomy

Feb. 01, 2015 Rise Set
Actual Time
Civil Twilight
Nautical Twilight
Astronomical Twilight
Moon
Length of Visible Light
Length of Day
Tomorrow will be .
, % of the Moon is Illuminated

Today's Extremes

State Highs State Lows

Community

WunderPhotos

Upload Photos

1,792,659 photos uploaded!

WunderBlogs® & News

Nearby

Air Quality

  Air Quality AQ Index Pollutant
Not available.

Snow Depth

Station Depth Elevation

Earthquake Activity

City Distance Mag. Time & Date
Minimum magnitude displayed is 2.5.

Coastal Water Temperatures

Place Temperature

Nearby Weather Stations